Time;durP1;ratioP1;P1;durP2;ratioP2;P2;SDS_P1;SDS_P2;PMS_P1;PMS_P2;Temp;Humidity;BMP_temperature;BMP_pressure;BME280_temperature;BME280_humidity;BME280_pressure;Samples;Min_cycle;Max_cycle;Signal;HPM_P1;HPM_P2
2022/09/13 00:01:46;;;;;;;6.07;5.47;;;15.40;1.00;;;;;;4993340;28;20189;-56
2022/09/13 00:04:12;;;;;;;6.43;5.93;;;15.40;1.00;;;;;;4993242;28;20187;-56
2022/09/13 00:06:37;;;;;;;5.90;5.03;;;15.40;1.00;;;;;;4993313;28;20420;-54
2022/09/13 00:09:03;;;;;;;5.83;5.33;;;15.50;1.00;;;;;;4993172;28;20285;-54
2022/09/13 00:11:30;;;;;;;9.00;6.20;;;15.40;1.00;;;;;;4993318;28;20210;-56
2022/09/13 00:13:56;;;;;;;8.60;6.27;;;15.40;1.00;;;;;;4992682;28;20207;-55
2022/09/13 00:16:25;;;;;;;6.30;5.80;;;15.40;1.00;;;;;;4975767;28;20437;-51
2022/09/13 00:18:52;;;;;;;5.93;5.43;;;15.40;1.00;;;;;;4992622;28;20475;-56
2022/09/13 00:21:19;;;;;;;5.83;5.33;;;15.50;1.00;;;;;;4992426;28;20415;-55
2022/09/13 00:23:47;;;;;;;7.53;6.40;;;15.40;1.00;;;;;;4995272;28;20433;-53
2022/09/13 00:26:16;;;;;;;6.30;5.80;;;15.40;1.00;;;;;;4992668;28;20419;-55
2022/09/13 00:28:44;;;;;;;6.57;5.87;;;15.40;1.00;;;;;;4993124;28;20416;-55
2022/09/13 00:31:10;;;;;;;6.07;5.57;;;15.30;1.00;;;;;;4992562;28;20562;-54
2022/09/13 00:33:37;;;;;;;6.57;5.73;;;15.20;1.00;;;;;;4992728;28;20412;-55
2022/09/13 00:36:08;;;;;;;6.90;6.30;;;15.20;1.00;;;;;;4992202;28;20527;-56
2022/09/13 00:38:35;;;;;;;6.20;5.60;;;15.10;1.00;;;;;;4989919;28;20473;-55
2022/09/13 00:41:03;;;;;;;6.10;5.27;;;15.10;1.00;;;;;;4992432;28;20431;-54
2022/09/13 00:43:59;;;;;;;6.13;5.53;;;15.10;1.00;;;;;;4992373;28;20473;-56
2022/09/13 00:46:43;;;;;;;5.60;5.10;;;15.10;1.00;;;;;;4972160;28;20432;-53
2022/09/13 00:49:22;;;;;;;5.87;5.37;;;15.20;1.00;;;;;;4992426;28;20444;-54
2022/09/13 00:51:55;;;;;;;5.97;5.47;;;15.10;1.00;;;;;;4992001;28;20447;-54
2022/09/13 00:54:25;;;;;;;8.50;6.50;;;15.20;1.00;;;;;;4992420;28;20424;-55
2022/09/13 00:56:55;;;;;;;5.67;5.17;;;15.10;1.00;;;;;;4992456;28;20865;-55
2022/09/13 00:59:27;;;;;;;6.10;5.47;;;15.10;1.00;;;;;;4992389;28;20423;-55
2022/09/13 01:01:55;;;;;;;8.10;6.03;;;15.10;1.00;;;;;;4991854;28;21492;-56
2022/09/13 01:04:24;;;;;;;6.07;4.90;;;15.10;1.00;;;;;;4995638;28;20432;-54
2022/09/13 01:06:53;;;;;;;6.67;6.00;;;15.10;1.00;;;;;;4992013;28;20448;-54
2022/09/13 01:09:18;;;;;;;5.67;5.00;;;15.10;1.00;;;;;;4991659;28;20459;-55
2022/09/13 01:12:14;;;;;;;5.67;5.20;;;15.10;1.00;;;;;;4999776;28;20501;-53
2022/09/13 01:14:40;;;;;;;6.73;5.57;;;15.00;1.00;;;;;;4974656;28;20194;-55
2022/09/13 01:17:07;;;;;;;5.20;4.80;;;15.00;1.00;;;;;;4995894;28;21134;-54
2022/09/13 01:19:34;;;;;;;5.80;5.30;;;15.00;1.00;;;;;;4991981;28;20449;-53
2022/09/13 01:22:28;;;;;;;7.57;5.70;;;14.90;1.00;;;;;;4991452;28;20444;-55
2022/09/13 01:25:27;;;;;;;6.07;5.47;;;15.00;1.00;;;;;;4991937;28;20528;-53
2022/09/13 01:28:15;;;;;;;9.40;5.50;;;15.00;1.00;;;;;;4988827;28;20456;-53
2022/09/13 01:30:58;;;;;;;7.73;5.77;;;14.90;1.00;;;;;;4991173;28;20462;-53
2022/09/13 01:33:31;;;;;;;5.17;4.73;;;14.90;1.00;;;;;;4991488;28;20808;-55
2022/09/13 01:36:32;;;;;;;5.87;5.37;;;14.90;1.00;;;;;;4991424;28;20423;-53
2022/09/13 01:39:05;;;;;;;5.47;4.97;;;14.90;1.00;;;;;;4978083;28;20431;-56
2022/09/13 01:41:30;;;;;;;5.60;5.10;;;14.90;1.00;;;;;;4990960;28;20435;-53
2022/09/13 01:44:26;;;;;;;6.67;5.60;;;14.90;1.00;;;;;;4974114;28;20785;-54
2022/09/13 01:47:19;;;;;;;6.20;5.33;;;15.00;1.00;;;;;;4988016;28;20596;-53
2022/09/13 01:50:08;;;;;;;6.03;5.53;;;14.90;1.00;;;;;;4990686;28;20420;-55
2022/09/13 01:52:39;;;;;;;6.43;5.50;;;14.80;1.00;;;;;;4973041;28;20464;-53
2022/09/13 01:55:23;;;;;;;5.90;5.40;;;14.90;1.00;;;;;;4991437;28;20592;-54
2022/09/13 01:57:55;;;;;;;6.13;5.53;;;14.90;1.00;;;;;;4991182;28;20450;-53
2022/09/13 02:00:21;;;;;;;5.63;5.20;;;14.80;1.00;;;;;;4991298;28;20433;-53
2022/09/13 02:02:52;;;;;;;5.97;5.47;;;14.80;1.00;;;;;;4990840;28;20415;-54
2022/09/13 02:05:40;;;;;;;6.53;5.83;;;14.80;1.00;;;;;;4990070;28;20178;-56
2022/09/13 02:08:12;;;;;;;5.37;4.93;;;14.70;1.00;;;;;;4989786;28;20416;-56
2022/09/13 02:10:43;;;;;;;6.10;5.50;;;14.60;1.00;;;;;;4990799;28;20428;-55
2022/09/13 02:13:16;;;;;;;6.07;5.47;;;14.60;1.00;;;;;;4990098;28;20445;-56
2022/09/13 02:15:55;;;;;;;5.80;5.30;;;14.60;1.00;;;;;;4991118;28;20915;-56
2022/09/13 02:18:30;;;;;;;5.50;5.00;;;14.70;1.00;;;;;;4990017;28;20816;-53
2022/09/13 02:21:04;;;;;;;6.67;5.47;;;14.70;1.00;;;;;;4990825;28;20997;-53
2022/09/13 02:23:40;;;;;;;5.27;4.77;;;14.60;1.00;;;;;;4990808;28;20415;-54
2022/09/13 02:26:09;;;;;;;7.40;6.00;;;14.70;1.00;;;;;;4990922;28;20938;-55
2022/09/13 02:28:37;;;;;;;6.93;5.40;;;14.70;1.00;;;;;;4990865;28;20440;-53
2022/09/13 02:31:08;;;;;;;5.83;5.27;;;14.70;1.00;;;;;;4990571;28;20793;-53
2022/09/13 02:34:03;;;;;;;5.60;5.10;;;14.70;1.00;;;;;;4991302;28;20424;-55
2022/09/13 02:36:34;;;;;;;5.27;4.87;;;14.70;1.00;;;;;;4989500;28;21089;-53
2022/09/13 02:39:06;;;;;;;5.60;5.13;;;14.70;1.00;;;;;;4990932;28;20469;-56
2022/09/13 02:41:54;;;;;;;5.70;5.30;;;14.60;1.00;;;;;;4990192;28;20558;-55
2022/09/13 02:44:39;;;;;;;5.87;5.27;;;14.60;1.00;;;;;;4990578;28;20466;-55
2022/09/13 02:47:11;;;;;;;6.40;5.33;;;14.60;1.00;;;;;;4990669;28;20415;-54
2022/09/13 02:50:08;;;;;;;6.80;5.30;;;14.60;1.00;;;;;;4991843;28;20416;-54
2022/09/13 02:52:49;;;;;;;7.37;5.07;;;14.60;1.00;;;;;;4991989;28;20607;-54
2022/09/13 02:55:41;;;;;;;10.40;5.63;;;14.50;1.00;;;;;;4990624;28;20993;-56
2022/09/13 02:58:17;;;;;;;5.70;5.20;;;14.60;1.00;;;;;;4980049;28;20453;-54
2022/09/13 03:00:45;;;;;;;5.90;5.40;;;14.60;1.00;;;;;;4990849;28;20501;-55
2022/09/13 03:03:14;;;;;;;5.30;4.90;;;14.60;1.00;;;;;;4990685;28;20456;-54
2022/09/13 03:05:40;;;;;;;6.13;5.63;;;14.50;1.00;;;;;;4993485;28;20436;-53
2022/09/13 03:08:09;;;;;;;5.80;5.30;;;14.50;1.00;;;;;;4994345;28;20460;-54
2022/09/13 03:11:11;;;;;;;5.67;5.17;;;14.50;1.00;;;;;;4994075;28;20479;-54
2022/09/13 03:14:06;;;;;;;5.50;5.00;;;14.50;1.00;;;;;;4970048;28;20418;-55
2022/09/13 03:16:44;;;;;;;6.30;5.60;;;14.50;1.00;;;;;;4991716;28;20441;-53
2022/09/13 03:19:35;;;;;;;6.07;5.47;;;14.50;1.00;;;;;;4993836;28;20464;-54
2022/09/13 03:22:16;;;;;;;5.97;5.47;;;14.50;1.00;;;;;;4994282;28;20442;-56
2022/09/13 03:25:01;;;;;;;5.47;5.03;;;14.50;1.00;;;;;;4996579;28;20411;-53
2022/09/13 03:27:43;;;;;;;6.40;5.80;;;14.40;1.00;;;;;;4993421;28;20467;-54
2022/09/13 03:30:14;;;;;;;7.10;5.40;;;14.40;1.00;;;;;;4994339;28;20485;-55
2022/09/13 03:32:40;;;;;;;6.33;5.73;;;14.50;1.00;;;;;;4993536;28;20419;-54
2022/09/13 03:35:16;;;;;;;6.20;5.27;;;14.60;1.00;;;;;;4994065;28;20416;-54
2022/09/13 03:38:01;;;;;;;5.70;5.20;;;14.50;1.00;;;;;;4992276;28;20269;-54
2022/09/13 03:40:47;;;;;;;6.97;5.70;;;14.50;1.00;;;;;;4992883;28;20523;-54
2022/09/13 03:43:20;;;;;;;9.10;5.13;;;14.50;1.00;;;;;;4993716;28;20447;-53
2022/09/13 03:45:50;;;;;;;6.33;5.83;;;14.60;1.00;;;;;;4991929;28;20485;-54
2022/09/13 03:48:17;;;;;;;6.73;6.03;;;14.60;1.00;;;;;;4993533;28;20803;-54
2022/09/13 03:50:46;;;;;;;6.43;5.87;;;14.50;1.00;;;;;;4991042;28;21011;-54
2022/09/13 03:53:18;;;;;;;5.67;5.17;;;14.50;1.00;;;;;;4999611;28;20426;-55
2022/09/13 03:55:44;;;;;;;6.20;5.47;;;14.50;1.00;;;;;;4993345;28;20483;-55
2022/09/13 03:58:15;;;;;;;5.93;5.40;;;14.50;1.00;;;;;;4993927;28;20447;-55
2022/09/13 04:00:41;;;;;;;5.20;4.70;;;14.50;1.00;;;;;;4992781;28;20188;-54
2022/09/13 04:03:08;;;;;;;6.83;6.00;;;14.50;1.00;;;;;;4976151;28;20827;-54
2022/09/13 04:05:34;;;;;;;6.23;5.63;;;13.90;1.00;;;;;;4993054;28;20499;-54
2022/09/13 04:08:01;;;;;;;6.13;5.63;;;14.50;1.00;;;;;;4993085;28;20445;-52
2022/09/13 04:10:28;;;;;;;6.43;5.83;;;14.50;1.00;;;;;;4993453;28;20647;-55
2022/09/13 04:12:54;;;;;;;6.90;5.80;;;;;;;;;;4993247;28;20423;-53
2022/09/13 04:15:20;;;;;;;5.10;4.70;;;14.50;1.00;;;;;;4992905;28;20931;-55
2022/09/13 04:17:46;;;;;;;6.63;5.93;;;14.40;1.00;;;;;;4992714;28;20458;-55
2022/09/13 04:20:12;;;;;;;5.97;5.47;;;14.40;1.00;;;;;;4991899;28;20491;-55
2022/09/13 04:22:38;;;;;;;7.20;5.77;;;14.50;1.00;;;;;;4992958;28;20484;-53
2022/09/13 04:25:04;;;;;;;5.50;5.00;;;14.50;1.00;;;;;;4992963;28;20196;-53
2022/09/13 04:27:30;;;;;;;6.00;5.50;;;14.40;1.00;;;;;;4992845;28;20202;-56
2022/09/13 04:29:55;;;;;;;6.57;5.97;;;14.40;1.00;;;;;;4992802;28;20419;-53
2022/09/13 04:32:21;;;;;;;5.50;5.10;;;14.40;1.00;;;;;;4992796;28;20186;-55
2022/09/13 04:34:46;;;;;;;6.10;5.60;;;14.40;1.00;;;;;;4992999;28;20182;-54
2022/09/13 04:37:12;;;;;;;15.60;11.70;;;14.40;1.00;;;;;;4992486;28;20213;-53
2022/09/13 04:39:38;;;;;;;11.77;6.33;;;14.40;1.00;;;;;;4990089;28;20476;-56
2022/09/13 04:42:06;;;;;;;9.93;6.47;;;14.40;1.00;;;;;;4992346;28;20296;-53
2022/09/13 04:44:32;;;;;;;6.83;6.23;;;14.40;1.00;;;;;;4992899;28;20190;-55
2022/09/13 04:46:59;;;;;;;6.10;5.60;;;14.40;1.00;;;;;;4992616;28;20469;-56
2022/09/13 04:49:24;;;;;;;7.07;6.37;;;14.40;1.00;;;;;;4992344;28;20504;-56
2022/09/13 04:51:50;;;;;;;9.23;6.70;;;14.50;1.00;;;;;;4992174;28;20444;-56
2022/09/13 04:54:16;;;;;;;11.30;5.47;;;14.60;1.00;;;;;;4992264;28;20182;-56
2022/09/13 04:56:43;;;;;;;8.33;6.00;;;14.60;1.00;;;;;;4992436;28;20190;-55
2022/09/13 04:59:09;;;;;;;6.60;6.00;;;14.50;1.00;;;;;;4992854;28;20415;-54
2022/09/13 05:01:36;;;;;;;7.33;6.50;;;14.60;1.00;;;;;;4992044;28;20757;-55
2022/09/13 05:04:02;;;;;;;7.33;6.73;;;14.60;1.00;;;;;;4992265;28;20424;-54
2022/09/13 05:06:29;;;;;;;7.03;6.33;;;14.60;1.00;;;;;;4992099;28;20463;-55
2022/09/13 05:08:55;;;;;;;8.87;7.20;;;14.60;1.00;;;;;;4992162;28;20678;-54
2022/09/13 05:11:22;;;;;;;6.60;6.00;;;14.60;1.00;;;;;;4992267;28;21005;-53
2022/09/13 05:13:54;;;;;;;6.40;5.90;;;14.70;1.00;;;;;;4992711;28;20888;-55
2022/09/13 05:16:21;;;;;;;7.37;6.67;;;14.80;1.00;;;;;;4992016;28;20486;-55
2022/09/13 05:18:46;;;;;;;6.70;6.10;;;14.90;1.00;;;;;;4991171;28;20420;-57
2022/09/13 05:21:12;;;;;;;7.27;6.67;;;14.90;1.00;;;;;;4991851;28;20478;-56
2022/09/13 05:23:38;;;;;;;7.57;6.47;;;14.90;1.00;;;;;;4991640;28;20202;-55
2022/09/13 05:26:07;;;;;;;8.20;6.63;;;14.90;1.00;;;;;;4991560;28;20639;-54
2022/09/13 05:28:34;;;;;;;7.23;6.53;;;14.90;1.00;;;;;;4992257;28;20178;-55
2022/09/13 05:31:21;;;;;;;6.63;5.93;;;15.10;1.00;;;;;;4991349;28;20435;-54
2022/09/13 05:33:51;;;;;;;7.67;5.60;;;15.10;1.00;;;;;;4990778;28;20511;-55
2022/09/13 05:36:17;;;;;;;7.60;5.60;;;15.20;1.00;;;;;;4991937;28;20938;-55
2022/09/13 05:38:43;;;;;;;9.10;7.00;;;15.20;1.00;;;;;;4996494;28;20430;-56
2022/09/13 05:41:09;;;;;;;9.63;6.23;;;15.20;1.00;;;;;;4991463;28;20707;-53
2022/09/13 05:43:35;;;;;;;9.70;7.00;;;15.40;1.00;;;;;;4990802;28;20264;-53
2022/09/13 05:46:06;;;;;;;7.30;6.60;;;15.50;1.00;;;;;;4991383;28;20444;-53
2022/09/13 05:48:33;;;;;;;7.20;6.50;;;15.70;1.00;;;;;;4991409;28;20420;-54
2022/09/13 05:51:15;;;;;;;7.40;6.70;;;15.80;1.00;;;;;;4991115;28;21197;-53
2022/09/13 05:53:43;;;;;;;7.00;6.40;;;15.80;1.00;;;;;;4991689;28;20424;-53
2022/09/13 05:56:12;;;;;;;8.10;7.30;;;15.80;1.00;;;;;;4991449;28;20427;-55
2022/09/13 05:58:39;;;;;;;8.70;6.07;;;15.90;1.00;;;;;;4991075;28;20407;-56
2022/09/13 06:01:05;;;;;;;8.13;6.43;;;15.90;1.00;;;;;;4990755;28;20579;-55
2022/09/13 06:03:31;;;;;;;9.43;6.20;;;16.00;1.00;;;;;;4990998;28;20536;-56
2022/09/13 06:05:57;;;;;;;11.30;6.20;;;16.10;1.00;;;;;;4991123;28;20424;-55
2022/09/13 06:08:28;;;;;;;8.20;7.07;;;16.10;1.00;;;;;;4990862;28;20190;-55
2022/09/13 06:11:08;;;;;;;7.30;5.80;;;16.20;1.00;;;;;;4990969;28;20827;-54
2022/09/13 06:13:35;;;;;;;6.70;6.00;;;16.30;1.00;;;;;;4990739;28;20472;-53
2022/09/13 06:16:06;;;;;;;6.90;6.20;;;16.50;1.00;;;;;;4990805;28;20830;-54
2022/09/13 06:18:34;;;;;;;13.47;5.97;;;16.70;1.00;;;;;;4990939;28;20455;-56
2022/09/13 06:21:05;;;;;;;6.77;6.03;;;16.80;1.00;;;;;;4990419;28;20412;-53
2022/09/13 06:23:31;;;;;;;8.17;6.03;;;17.10;1.00;;;;;;4988406;28;20762;-55
2022/09/13 06:26:11;;;;;;;6.57;5.70;;;17.40;1.00;;;;;;4973307;28;20456;-55
2022/09/13 06:28:37;;;;;;;6.77;5.70;;;17.80;1.00;;;;;;4990291;28;20600;-54
2022/09/13 06:31:07;;;;;;;5.70;5.20;;;17.90;1.00;;;;;;4990546;28;20790;-56
2022/09/13 06:33:34;;;;;;;6.73;5.90;;;18.00;1.00;;;;;;4990406;28;20456;-55
2022/09/13 06:36:01;;;;;;;7.40;5.30;;;18.00;1.00;;;;;;4990499;28;21077;-54
2022/09/13 06:38:27;;;;;;;10.43;5.50;;;18.00;1.00;;;;;;4990260;28;20441;-56
2022/09/13 06:41:13;;;;;;;6.53;5.37;;;17.90;1.00;;;;;;4990778;28;20453;-54
2022/09/13 06:43:40;;;;;;;5.53;5.03;;;17.80;1.00;;;;;;4990475;28;20288;-55
2022/09/13 06:46:09;;;;;;;7.70;5.93;;;17.90;1.00;;;;;;4990357;28;20507;-55
2022/09/13 06:48:37;;;;;;;8.17;6.20;;;18.10;1.00;;;;;;4990221;28;20439;-54
2022/09/13 06:51:08;;;;;;;7.50;6.20;;;18.30;1.00;;;;;;4990699;28;20508;-56
2022/09/13 06:53:35;;;;;;;6.00;5.40;;;18.40;1.00;;;;;;4989227;28;20444;-54
2022/09/13 06:56:05;;;;;;;6.60;6.00;;;18.70;1.00;;;;;;4990715;28;20445;-53
2022/09/13 06:58:32;;;;;;;6.83;5.60;;;18.90;1.00;;;;;;4990244;28;20437;-56
2022/09/13 07:01:14;;;;;;;8.37;5.70;;;19.10;1.00;;;;;;4990309;28;20454;-55
2022/09/13 07:03:51;;;;;;;7.43;6.73;;;19.00;1.00;;;;;;4989455;28;20428;-53
2022/09/13 07:06:20;;;;;;;6.20;5.60;;;19.10;1.00;;;;;;4990294;28;20411;-55
2022/09/13 07:08:46;;;;;;;7.10;5.17;;;19.00;1.00;;;;;;4994450;28;20466;-54
2022/09/13 07:11:14;;;;;;;6.23;5.40;;;19.20;1.00;;;;;;4990593;28;20802;-55
2022/09/13 07:13:40;;;;;;;5.80;5.00;;;19.30;1.00;;;;;;4972981;28;20417;-54
2022/09/13 07:16:10;;;;;;;7.37;5.93;;;19.20;1.00;;;;;;4990742;28;20939;-54
2022/09/13 07:18:37;;;;;;;7.57;4.90;;;19.60;1.00;;;;;;4989431;28;20424;-53
2022/09/13 07:21:08;;;;;;;8.63;5.63;;;19.60;1.00;;;;;;4990541;28;20453;-54
2022/09/13 07:23:36;;;;;;;7.90;5.50;;;19.80;1.00;;;;;;4990094;28;20504;-56
2022/09/13 07:26:05;;;;;;;6.20;5.60;;;20.00;1.00;;;;;;4994610;28;20420;-53
2022/09/13 07:28:34;;;;;;;6.47;5.87;;;20.10;1.00;;;;;;4992643;28;20946;-53
2022/09/13 07:31:08;;;;;;;5.33;4.87;;;20.10;1.00;;;;;;4990401;28;20473;-54
2022/09/13 07:33:33;;;;;;;7.53;6.30;;;20.20;1.00;;;;;;4989908;28;20468;-54
2022/09/13 07:36:05;;;;;;;5.90;5.07;;;20.40;1.00;;;;;;4990052;28;20443;-53
2022/09/13 07:38:34;;;;;;;6.83;5.03;;;20.40;1.00;;;;;;4972635;28;20855;-54
2022/09/13 07:41:00;;;;;;;7.60;5.30;;;;;;;;;;4989485;28;21213;-56
2022/09/13 07:43:26;;;;;;;5.90;5.30;;;20.30;1.00;;;;;;4993055;28;20556;-56
2022/09/13 07:46:07;;;;;;;6.90;4.87;;;20.30;1.00;;;;;;4989869;28;20463;-53
2022/09/13 07:48:34;;;;;;;5.37;4.97;;;20.20;1.00;;;;;;4990163;28;20446;-54
2022/09/13 07:51:15;;;;;;;5.93;5.20;;;20.20;1.00;;;;;;4991601;28;20431;-54
2022/09/13 07:53:42;;;;;;;7.73;5.23;;;20.00;1.00;;;;;;4993544;28;20832;-53
2022/09/13 07:56:10;;;;;;;6.20;5.60;;;19.90;1.00;;;;;;5003780;28;20444;-55
2022/09/13 07:58:37;;;;;;;6.97;5.97;;;19.70;1.00;;;;;;4997357;28;20430;-57
2022/09/13 08:01:18;;;;;;;5.13;4.63;;;19.60;1.00;;;;;;4993115;28;20504;-55
2022/09/13 08:03:49;;;;;;;7.00;5.70;;;19.60;1.00;;;;;;4993159;28;20857;-54
2022/09/13 08:06:14;;;;;;;6.30;5.70;;;19.50;1.00;;;;;;4991188;28;20426;-54
2022/09/13 08:08:40;;;;;;;7.10;5.37;;;19.50;1.00;;;;;;4992891;28;20450;-53
2022/09/13 08:11:06;;;;;;;6.20;5.53;;;19.50;1.00;;;;;;4992788;28;21437;-54
2022/09/13 08:13:32;;;;;;;6.47;5.87;;;19.50;1.00;;;;;;4983131;28;20599;-57
2022/09/13 08:16:04;;;;;;;6.67;6.07;;;19.40;1.00;;;;;;4992700;28;20937;-54
2022/09/13 08:18:30;;;;;;;6.87;6.17;;;19.30;1.00;;;;;;4992457;28;20890;-57
2022/09/13 08:20:57;;;;;;;9.07;5.87;;;19.30;1.00;;;;;;4992556;28;20453;-55
2022/09/13 08:23:23;;;;;;;7.23;6.57;;;19.30;1.00;;;;;;4993238;28;20799;-54
2022/09/13 08:25:49;;;;;;;7.67;6.97;;;19.50;1.00;;;;;;4992838;28;20449;-55
2022/09/13 08:28:16;;;;;;;8.83;6.77;;;19.60;1.00;;;;;;5000305;28;20467;-56
2022/09/13 08:30:42;;;;;;;6.70;6.10;;;19.90;1.00;;;;;;4992566;28;20679;-55
2022/09/13 08:33:10;;;;;;;7.03;6.30;;;20.20;1.00;;;;;;4992160;28;20517;-54
2022/09/13 08:35:36;;;;;;;7.07;6.37;;;20.50;1.00;;;;;;4992773;28;20417;-55
2022/09/13 08:38:03;;;;;;;7.80;7.00;;;20.60;1.00;;;;;;4992591;28;20441;-54
2022/09/13 08:40:54;;;;;;;5.70;5.20;;;20.80;1.00;;;;;;4992456;28;20446;-56
2022/09/13 08:43:43;;;;;;;6.83;6.23;;;20.70;1.00;;;;;;4956065;28;20490;-54
2022/09/13 08:46:26;;;;;;;6.53;5.70;;;20.60;1.00;;;;;;4991920;28;20573;-55
2022/09/13 08:48:57;;;;;;;8.00;7.30;;;20.50;1.00;;;;;;4992616;28;20442;-55
2022/09/13 08:51:40;;;;;;;9.10;7.20;;;20.50;1.00;;;;;;4992154;28;20472;-54
2022/09/13 08:54:10;;;;;;;6.87;6.27;;;20.70;1.00;;;;;;4992727;28;21806;-55
2022/09/13 08:56:45;;;;;;;8.00;6.37;;;20.80;1.00;;;;;;4990091;28;20526;-54
2022/09/13 08:59:38;;;;;;;6.80;6.20;;;21.00;1.00;;;;;;4991919;28;20469;-54
2022/09/13 09:02:25;;;;;;;6.90;6.30;;;21.10;1.00;;;;;;4992400;28;20481;-55
2022/09/13 09:05:03;;;;;;;7.20;6.60;;;21.10;1.00;;;;;;4991520;28;20445;-55
2022/09/13 09:07:39;;;;;;;9.00;6.97;;;21.10;1.00;;;;;;4992041;28;20416;-55
2022/09/13 09:10:13;;;;;;;7.33;6.73;;;20.90;1.00;;;;;;4990574;28;20411;-56
2022/09/13 09:12:48;;;;;;;8.77;6.60;;;20.80;1.00;;;;;;4991986;28;20842;-55
2022/09/13 09:15:16;;;;;;;7.10;6.50;;;20.80;1.00;;;;;;4991996;28;20446;-54
2022/09/13 09:18:02;;;;;;;11.40;8.20;;;20.90;1.00;;;;;;4991370;28;20454;-55
2022/09/13 09:21:00;;;;;;;8.27;6.60;;;20.90;1.00;;;;;;4991526;28;20481;-56
2022/09/13 09:23:29;;;;;;;6.40;5.87;;;21.10;1.00;;;;;;4938255;28;20460;-54
2022/09/13 09:26:16;;;;;;;7.73;6.40;;;21.10;1.00;;;;;;4991882;28;20449;-53
2022/09/13 09:29:04;;;;;;;8.10;6.53;;;21.20;1.00;;;;;;4991084;28;20428;-55
2022/09/13 09:31:39;;;;;;;11.57;8.40;;;21.20;1.00;;;;;;4991332;28;20547;-56
2022/09/13 09:34:19;;;;;;;7.70;5.70;;;21.20;1.00;;;;;;4991941;28;20838;-53
2022/09/13 09:37:07;;;;;;;7.67;6.97;;;21.30;1.00;;;;;;4991390;28;20441;-55
2022/09/13 09:39:37;;;;;;;7.70;6.10;;;21.40;1.00;;;;;;4990799;28;20446;-55
2022/09/13 09:42:12;;;;;;;8.03;6.30;;;21.70;1.00;;;;;;4991588;28;21015;-54
2022/09/13 09:44:39;;;;;;;8.17;6.70;;;22.00;1.00;;;;;;4991191;28;20434;-55
2022/09/13 09:47:32;;;;;;;7.90;7.10;;;22.20;1.00;;;;;;4991111;28;20412;-54
2022/09/13 09:50:10;;;;;;;8.13;7.30;;;22.30;1.00;;;;;;4989776;28;20927;-56
2022/09/13 09:52:37;;;;;;;9.23;6.60;;;22.50;1.00;;;;;;4991001;28;20412;-54
2022/09/13 09:55:27;;;;;;;6.87;6.27;;;22.70;1.00;;;;;;4991456;28;20500;-54
2022/09/13 09:58:05;;;;;;;6.40;5.80;;;22.80;1.00;;;;;;4990803;28;20443;-53
2022/09/13 10:00:36;;;;;;;8.57;6.73;;;22.90;1.00;;;;;;4991054;28;20453;-55
2022/09/13 10:03:14;;;;;;;7.33;6.60;;;23.10;1.00;;;;;;4973126;28;20454;-53
2022/09/13 10:05:41;;;;;;;7.40;6.70;;;23.60;1.00;;;;;;4990877;28;20495;-56
2022/09/13 10:08:22;;;;;;;6.30;5.80;;;24.10;1.00;;;;;;4990052;28;20470;-54
2022/09/13 10:10:58;;;;;;;6.27;5.77;;;24.50;1.00;;;;;;4990586;28;20465;-56
2022/09/13 10:13:24;;;;;;;7.50;6.23;;;24.90;1.00;;;;;;4988518;28;20453;-54
2022/09/13 10:15:57;;;;;;;6.97;6.23;;;25.20;1.00;;;;;;4974360;28;20446;-55
2022/09/13 10:18:25;;;;;;;6.40;5.80;;;25.40;1.00;;;;;;4991013;28;20179;-54
2022/09/13 10:21:16;;;;;;;6.27;5.77;;;25.20;1.00;;;;;;4990523;28;20796;-57
2022/09/13 10:23:42;;;;;;;6.13;5.53;;;25.10;1.00;;;;;;4997639;28;20971;-53
2022/09/13 10:26:14;;;;;;;6.23;5.63;;;25.10;1.00;;;;;;4990744;28;20437;-56
2022/09/13 10:29:09;;;;;;;5.57;5.07;;;25.10;1.00;;;;;;4990401;28;20442;-54
2022/09/13 10:31:46;;;;;;;6.20;5.40;;;25.10;1.00;;;;;;4979283;28;20966;-54
2022/09/13 10:34:19;;;;;;;5.73;5.23;;;24.90;1.00;;;;;;4990454;28;20469;-55
2022/09/13 10:37:30;;;;;;;6.17;5.57;;;24.80;1.00;;;;;;4990229;28;20533;-55
2022/09/13 10:40:12;;;;;;;9.90;5.77;;;24.70;1.00;;;;;;4990449;28;20437;-54
2022/09/13 10:42:37;;;;;;;5.87;4.70;;;24.60;1.00;;;;;;4989036;28;20688;-54
2022/09/13 10:45:07;;;;;;;6.50;6.00;;;24.40;1.00;;;;;;4990059;28;20537;-52
2022/09/13 10:47:46;;;;;;;5.07;4.67;;;24.20;1.00;;;;;;4989615;28;20261;-56
2022/09/13 10:50:18;;;;;;;5.17;4.67;;;24.20;1.00;;;;;;4990142;28;20433;-57
2022/09/13 10:52:46;;;;;;;5.50;4.10;;;24.50;1.00;;;;;;4990725;28;20413;-53
2022/09/13 10:55:18;;;;;;;5.40;4.43;;;24.60;1.00;;;;;;4989995;28;20448;-54
2022/09/13 10:57:46;;;;;;;6.67;4.30;;;24.80;1.00;;;;;;4990573;28;20437;-57
2022/09/13 11:00:18;;;;;;;5.00;4.60;;;24.90;1.00;;;;;;4990306;28;20507;-52
2022/09/13 11:03:12;;;;;;;5.83;4.90;;;25.10;1.00;;;;;;4973525;28;20964;-56
2022/09/13 11:05:56;;;;;;;4.53;4.13;;;25.40;1.00;;;;;;4998370;28;20442;-55
2022/09/13 11:08:39;;;;;;;4.23;3.93;;;25.70;1.00;;;;;;4990688;28;20447;-55
2022/09/13 11:11:22;;;;;;;4.37;4.07;;;26.00;1.00;;;;;;4990088;28;20957;-57
2022/09/13 11:13:54;;;;;;;3.83;3.43;;;26.20;1.00;;;;;;4990626;28;20522;-55
2022/09/13 11:16:41;;;;;;;4.13;3.73;;;26.20;1.00;;;;;;4989877;28;20416;-53
2022/09/13 11:19:34;;;;;;;3.00;2.80;;;26.00;1.00;;;;;;4988291;28;20813;-56
2022/09/13 11:22:09;;;;;;;3.13;2.93;;;25.90;1.00;;;;;;4989600;28;20437;-57
2022/09/13 11:24:44;;;;;;;3.60;3.33;;;25.50;1.00;;;;;;4989904;28;20795;-53
2022/09/13 11:27:24;;;;;;;3.60;3.30;;;25.50;1.00;;;;;;4991858;28;20446;-55
2022/09/13 11:30:02;;;;;;;3.50;3.20;;;25.50;1.00;;;;;;4991752;28;20549;-54
2022/09/13 11:32:52;;;;;;;3.90;3.57;;;25.80;1.00;;;;;;4993564;28;20487;-55
2022/09/13 11:35:43;;;;;;;3.50;3.20;;;25.80;1.00;;;;;;4993814;28;20442;-56
2022/09/13 11:38:36;;;;;;;3.40;3.10;;;25.70;1.00;;;;;;4993460;28;20804;-54
2022/09/13 11:41:21;;;;;;;4.00;3.20;;;25.50;1.00;;;;;;4992667;28;20474;-56
2022/09/13 11:44:05;;;;;;;5.53;3.50;;;25.60;1.00;;;;;;4993663;28;20461;-55
2022/09/13 11:46:39;;;;;;;2.77;2.57;;;25.60;1.00;;;;;;4993526;28;20411;-56
2022/09/13 11:49:27;;;;;;;3.37;3.07;;;25.90;1.00;;;;;;4993080;28;20445;-56
2022/09/13 11:52:14;;;;;;;3.30;2.90;;;26.00;1.00;;;;;;4993514;28;20468;-54
2022/09/13 11:55:01;;;;;;;3.37;3.07;;;26.00;1.00;;;;;;4993390;28;20429;-56
2022/09/13 11:57:32;;;;;;;3.30;3.00;;;26.20;1.00;;;;;;4993523;28;20439;-55
2022/09/13 12:00:26;;;;;;;11.03;3.77;;;26.50;1.00;;;;;;4993333;28;20449;-55
2022/09/13 12:03:11;;;;;;;3.00;2.80;;;26.70;1.00;;;;;;4990214;28;20892;-56
2022/09/13 12:06:18;;;;;;;3.30;3.10;;;26.40;1.00;;;;;;4993156;28;20528;-56
2022/09/13 12:08:52;;;;;;;3.40;3.10;;;25.90;1.00;;;;;;4980095;28;20432;-53
2022/09/13 12:11:24;;;;;;;3.57;3.27;;;25.40;1.00;;;;;;4993178;28;20503;-55
2022/09/13 12:13:55;;;;;;;3.10;2.80;;;25.10;1.00;;;;;;4992618;28;20454;-55
2022/09/13 12:16:47;;;;;;;3.30;3.00;;;25.20;1.00;;;;;;4993117;28;20426;-54
2022/09/13 12:19:23;;;;;;;3.17;2.97;;;25.30;1.00;;;;;;4992496;28;20803;-53
2022/09/13 12:21:51;;;;;;;3.30;3.00;;;25.30;1.00;;;;;;4992761;28;20421;-54
2022/09/13 12:24:28;;;;;;;3.67;3.33;;;25.30;1.00;;;;;;4992813;28;20456;-53
2022/09/13 12:27:03;;;;;;;3.23;2.70;;;25.50;1.00;;;;;;4991321;28;20974;-53
2022/09/13 12:29:36;;;;;;;2.70;2.50;;;26.00;1.00;;;;;;4990284;28;20536;-54
2022/09/13 12:32:04;;;;;;;2.50;2.30;;;25.90;1.00;;;;;;4992723;28;20468;-54
2022/09/13 12:35:09;;;;;;;2.73;2.53;;;25.70;1.00;;;;;;4990062;28;20445;-55
2022/09/13 12:37:41;;;;;;;2.63;2.40;;;25.60;1.00;;;;;;4974613;28;20442;-56
2022/09/13 12:40:27;;;;;;;3.97;2.43;;;25.50;1.00;;;;;;4992677;28;20482;-53
2022/09/13 12:43:15;;;;;;;3.00;2.80;;;25.70;1.00;;;;;;4992408;28;20533;-54
2022/09/13 12:46:09;;;;;;;2.97;2.40;;;25.90;1.00;;;;;;4992254;28;20423;-55
2022/09/13 12:49:06;;;;;;;2.97;2.67;;;26.20;1.00;;;;;;4987286;28;20480;-54
2022/09/13 12:51:31;;;;;;;3.77;2.60;;;26.00;1.00;;;;;;4992254;28;21142;-55
2022/09/13 12:54:11;;;;;;;3.37;3.00;;;26.00;1.00;;;;;;4992356;28;20412;-55
2022/09/13 12:56:43;;;;;;;2.67;2.47;;;26.00;1.00;;;;;;4992087;28;20564;-56
2022/09/13 12:59:08;;;;;;;2.87;2.37;;;26.10;1.00;;;;;;4992450;28;20797;-56
2022/09/13 13:01:34;;;;;;;2.70;2.33;;;26.20;1.00;;;;;;4992010;28;20503;-56
2022/09/13 13:04:11;;;;;;;2.40;2.30;;;26.10;1.00;;;;;;4992290;28;20246;-55
2022/09/13 13:06:52;;;;;;;2.60;2.40;;;25.80;1.00;;;;;;4992250;28;20454;-53
2022/09/13 13:09:22;;;;;;;3.83;2.73;;;25.80;1.00;;;;;;4992134;28;20452;-55
2022/09/13 13:11:50;;;;;;;3.10;1.80;;;25.70;1.00;;;;;;4990034;28;20623;-55
2022/09/13 13:14:52;;;;;;;2.63;2.43;;;25.90;1.00;;;;;;4992365;28;20504;-55
2022/09/13 13:17:40;;;;;;;2.70;2.50;;;25.80;1.00;;;;;;4949837;28;20927;-55
2022/09/13 13:20:40;;;;;;;3.30;2.40;;;26.00;1.00;;;;;;4992010;28;20524;-56
2022/09/13 13:23:35;;;;;;;4.50;2.70;;;26.20;1.00;;;;;;4991424;28;20947;-53
2022/09/13 13:26:43;;;;;;;3.47;2.47;;;26.20;1.00;;;;;;4990536;28;20446;-56
2022/09/13 13:29:16;;;;;;;3.90;2.50;;;25.70;1.00;;;;;;4991449;28;20938;-57
2022/09/13 13:32:02;;;;;;;2.87;2.57;;;25.60;1.00;;;;;;4991258;28;20443;-54
2022/09/13 13:34:30;;;;;;;3.97;2.20;;;25.40;1.00;;;;;;4991650;28;20434;-55
2022/09/13 13:37:04;;;;;;;4.70;2.60;;;25.50;1.00;;;;;;4989335;28;20446;-55